createdAt,value
2023-03-05T00:00:52.672Z,2.40
2023-03-05T00:03:31.369Z,2.80
2023-03-05T00:06:08.755Z,2.60
2023-03-05T00:08:45.911Z,2.50
2023-03-05T00:11:21.636Z,3.10
2023-03-05T00:14:01.488Z,3.70
2023-03-05T00:16:38.932Z,2.90
2023-03-05T00:19:16.547Z,2.40
2023-03-05T00:21:53.888Z,1.90
2023-03-05T00:24:24.065Z,3.20
2023-03-05T00:26:59.202Z,3.00
2023-03-05T00:29:31.749Z,4.90
2023-03-05T00:32:09.375Z,2.20
2023-03-05T00:34:39.658Z,3.10
2023-03-05T00:37:17.115Z,2.50
2023-03-05T00:39:54.482Z,3.30
2023-03-05T00:42:24.779Z,4.10
2023-03-05T00:45:01.387Z,3.30
2023-03-05T00:47:31.999Z,3.40
2023-03-05T00:50:10.182Z,3.80
2023-03-05T00:52:47.165Z,5.00
2023-03-05T00:55:17.714Z,4.00
2023-03-05T00:57:55.539Z,5.50
2023-03-05T01:00:32.740Z,4.10
2023-03-05T01:03:03.182Z,5.00
2023-03-05T01:05:33.843Z,5.50
2023-03-05T01:08:10.606Z,3.40
2023-03-05T01:10:48.172Z,3.70
2023-03-05T01:13:22.433Z,4.70
2023-03-05T01:16:00.325Z,4.00
2023-03-05T01:18:38.672Z,4.10
2023-03-05T01:21:16.115Z,3.60
2023-03-05T01:23:53.716Z,4.20
2023-03-05T01:26:24.066Z,4.90
2023-03-05T01:28:55.769Z,3.20
2023-03-05T01:31:26.918Z,4.00
2023-03-05T01:34:05.328Z,3.40
2023-03-05T01:36:45.164Z,3.70
2023-03-05T01:39:23.974Z,4.80
2023-03-05T01:42:01.756Z,6.10
2023-03-05T01:44:38.867Z,4.20
2023-03-05T01:47:16.233Z,5.30
2023-03-05T01:49:54.668Z,5.70
2023-03-05T01:52:27.584Z,3.10
2023-03-05T01:55:12.276Z,4.80
2023-03-05T01:58:10.392Z,6.00
2023-03-05T02:00:52.459Z,4.40
2023-03-05T02:03:27.065Z,4.30
2023-03-05T02:06:04.085Z,4.60
2023-03-05T02:08:41.055Z,5.30
2023-03-05T02:11:18.351Z,5.50
2023-03-05T02:13:55.020Z,5.10
2023-03-05T02:16:26.222Z,4.60
2023-03-05T02:18:57.655Z,6.00
2023-03-05T02:21:47.290Z,3.80
2023-03-05T02:24:42.677Z,5.70
2023-03-05T02:27:22.942Z,5.40
2023-03-05T02:30:01.006Z,5.10
2023-03-05T02:32:37.832Z,5.50
2023-03-05T02:35:15.328Z,5.70
2023-03-05T02:37:52.999Z,4.80
2023-03-05T02:40:28.278Z,4.50
2023-03-05T02:43:05.448Z,3.90
2023-03-05T02:45:35.635Z,3.50
2023-03-05T02:48:11.332Z,4.80
2023-03-05T02:50:49.995Z,4.20
2023-03-05T02:53:26.878Z,3.70
2023-03-05T02:55:57.986Z,4.20
2023-03-05T02:58:35.404Z,4.20
2023-03-05T03:01:12.770Z,6.70
2023-03-05T03:03:49.992Z,4.30
2023-03-05T03:06:27.107Z,4.50
2023-03-05T03:08:58.380Z,5.10
2023-03-05T03:11:31.883Z,3.80
2023-03-05T03:14:10.132Z,2.70
2023-03-05T03:16:47.859Z,3.60
2023-03-05T03:19:24.798Z,4.60
2023-03-05T03:22:02.093Z,4.80
2023-03-05T03:24:40.334Z,4.80
2023-03-05T03:27:18.029Z,5.10
2023-03-05T03:29:55.415Z,4.30
2023-03-05T03:32:33.608Z,4.00
2023-03-05T03:35:12.570Z,3.20
2023-03-05T03:37:44.888Z,4.50
2023-03-05T03:40:23.266Z,4.60
2023-03-05T03:43:01.328Z,3.00
2023-03-05T03:45:33.087Z,4.20
2023-03-05T03:48:12.545Z,4.70
2023-03-05T03:50:50.044Z,3.20
2023-03-05T03:53:27.874Z,4.00
2023-03-05T03:56:05.232Z,4.50
2023-03-05T03:58:42.134Z,5.30
2023-03-05T04:01:19.612Z,4.20
2023-03-05T04:03:57.361Z,4.90
2023-03-05T04:06:35.046Z,5.30
2023-03-05T04:09:13.177Z,4.40
2023-03-05T04:11:51.797Z,3.50
2023-03-05T04:14:29.308Z,3.60
2023-03-05T04:17:07.245Z,4.40
2023-03-05T04:19:44.989Z,4.30
2023-03-05T04:22:22.717Z,4.40
2023-03-05T04:24:54.097Z,4.60
2023-03-05T04:27:31.202Z,5.20
2023-03-05T04:30:19.852Z,6.40
2023-03-05T04:32:54.764Z,3.50
2023-03-05T04:35:31.906Z,5.40
2023-03-05T04:38:10.337Z,4.50
2023-03-05T04:40:48.710Z,4.20
2023-03-05T04:43:26.610Z,5.60
2023-03-05T04:46:03.778Z,4.20
2023-03-05T04:48:41.830Z,3.20
2023-03-05T04:51:19.249Z,3.30
2023-03-05T04:53:56.935Z,4.50
2023-03-05T04:56:35.081Z,5.20
2023-03-05T04:59:12.139Z,4.40
2023-03-05T05:01:49.304Z,4.60
2023-03-05T05:04:27.330Z,4.90
2023-03-05T05:07:04.882Z,3.70
2023-03-05T05:09:34.948Z,4.40
2023-03-05T05:12:12.601Z,5.50
2023-03-05T05:14:49.378Z,3.60
2023-03-05T05:17:28.169Z,3.40
2023-03-05T05:20:08.985Z,4.40
2023-03-05T05:22:46.508Z,3.80
2023-03-05T05:25:23.483Z,3.90
2023-03-05T05:27:59.702Z,3.30
2023-03-05T05:30:36.804Z,4.10
2023-03-05T05:33:14.625Z,4.30
2023-03-05T05:35:52.134Z,4.00
2023-03-05T05:38:28.893Z,3.80
2023-03-05T05:41:16.620Z,2.80
2023-03-05T05:43:53.644Z,4.50
2023-03-05T05:46:25.411Z,3.90
2023-03-05T05:49:03.820Z,3.50
2023-03-05T05:51:37.337Z,3.10
2023-03-05T05:54:16.503Z,3.60
2023-03-05T05:56:53.204Z,3.50
2023-03-05T05:59:29.522Z,3.50
2023-03-05T06:02:06.383Z,3.30
2023-03-05T06:04:43.630Z,3.40
2023-03-05T06:07:20.386Z,3.40
2023-03-05T06:09:56.924Z,4.60
2023-03-05T06:12:28.163Z,2.80
2023-03-05T06:15:05.662Z,4.40
2023-03-05T06:17:37.364Z,3.70
2023-03-05T06:20:23.550Z,4.30
2023-03-05T06:22:57.553Z,4.50
2023-03-05T06:25:35.625Z,3.30
2023-03-05T06:28:12.224Z,4.10
2023-03-05T06:30:49.386Z,5.00
2023-03-05T06:33:27.370Z,4.40
2023-03-05T06:36:07.356Z,4.50
2023-03-05T06:38:44.965Z,4.70
2023-03-05T06:41:24.914Z,4.00
2023-03-05T06:44:06.182Z,3.20
2023-03-05T06:46:44.062Z,3.50
2023-03-05T06:49:21.934Z,3.70
2023-03-05T06:51:59.587Z,4.00
2023-03-05T06:54:37.411Z,4.20
2023-03-05T06:57:15.150Z,4.80
2023-03-05T06:59:52.483Z,4.70
2023-03-05T07:02:29.498Z,4.60
2023-03-05T07:05:07.541Z,4.30
2023-03-05T07:07:39.479Z,3.60
2023-03-05T07:10:17.137Z,3.40
2023-03-05T07:12:54.226Z,4.70
2023-03-05T07:15:25.845Z,4.60
2023-03-05T07:18:04.787Z,3.40
2023-03-05T07:20:42.204Z,3.40
2023-03-05T07:23:18.925Z,3.80
2023-03-05T07:25:56.484Z,3.50
2023-03-05T07:28:34.848Z,3.90
2023-03-05T07:31:19.672Z,3.90
2023-03-05T07:33:56.746Z,4.40
2023-03-05T07:36:35.904Z,4.40
2023-03-05T07:39:14.924Z,4.20
2023-03-05T07:41:52.967Z,4.40
2023-03-05T07:44:31.125Z,3.70
2023-03-05T07:47:10.545Z,3.40
2023-03-05T07:49:48.899Z,3.30
2023-03-05T07:52:20.516Z,4.10
2023-03-05T07:54:57.683Z,4.30
2023-03-05T07:57:36.384Z,3.60
2023-03-05T08:00:14.620Z,3.70
2023-03-05T08:02:51.963Z,3.40
2023-03-05T08:05:28.122Z,4.50
2023-03-05T08:08:05.106Z,3.60
2023-03-05T08:10:43.005Z,4.10
2023-03-05T08:13:18.769Z,4.50
2023-03-05T08:15:56.048Z,5.50
2023-03-05T08:18:30.575Z,7.90
2023-03-05T08:21:09.255Z,4.00
2023-03-05T08:23:41.461Z,5.80
2023-03-05T08:26:21.652Z,6.20
2023-03-05T08:28:59.391Z,5.80
2023-03-05T08:31:37.419Z,6.60
2023-03-05T08:34:14.462Z,6.70
2023-03-05T08:36:51.150Z,6.00
2023-03-05T08:39:27.504Z,8.40
2023-03-05T08:42:05.798Z,14.30
2023-03-05T08:44:44.118Z,6.30
2023-03-05T08:47:15.006Z,13.60
2023-03-05T08:49:56.084Z,8.80
2023-03-05T08:52:32.907Z,11.70
2023-03-05T08:55:11.334Z,8.10
2023-03-05T08:57:51.442Z,6.60
2023-03-05T09:00:30.534Z,6.70
2023-03-05T09:03:02.549Z,11.40
2023-03-05T09:05:39.671Z,5.60
2023-03-05T09:08:17.587Z,6.30
2023-03-05T09:10:55.674Z,5.70
2023-03-05T09:13:33.239Z,6.40
2023-03-05T09:16:13.345Z,6.50
2023-03-05T09:18:50.726Z,7.30
2023-03-05T09:21:23.650Z,5.80
2023-03-05T09:24:01.511Z,6.30
2023-03-05T09:26:39.221Z,6.10
2023-03-05T09:29:16.740Z,6.50
2023-03-05T09:31:56.528Z,7.00
2023-03-05T09:34:34.957Z,7.20
2023-03-05T09:37:13.917Z,6.10
2023-03-05T09:39:53.274Z,6.80
2023-03-05T09:42:53.815Z,6.60
2023-03-05T09:46:15.714Z,6.20
2023-03-05T09:49:50.347Z,8.10
2023-03-05T09:52:34.403Z,9.20
2023-03-05T09:55:33.495Z,10.50
2023-03-05T09:58:27.876Z,13.20
2023-03-05T10:01:17.369Z,13.10
2023-03-05T10:04:13.685Z,10.00
2023-03-05T10:07:09.520Z,6.10
2023-03-05T10:10:08.812Z,7.60
2023-03-05T10:12:55.569Z,9.20
2023-03-05T10:15:56.636Z,7.00
2023-03-05T10:18:57.837Z,7.10
2023-03-05T10:21:46.992Z,7.80
2023-03-05T10:24:59.108Z,9.00
2023-03-05T10:28:01.071Z,9.00
2023-03-05T10:31:14.296Z,7.60
2023-03-05T10:34:34.390Z,7.70
2023-03-05T10:37:51.554Z,11.10
2023-03-05T10:40:43.215Z,8.30
2023-03-05T10:43:34.239Z,9.90
2023-03-05T10:46:19.146Z,7.50
2023-03-05T10:49:19.783Z,14.00
2023-03-05T10:52:18.922Z,11.30
2023-03-05T10:54:56.772Z,10.90
2023-03-05T10:57:32.147Z,7.70
2023-03-05T11:03:07.618Z,9.10
2023-03-05T11:06:04.619Z,8.60
2023-03-05T11:08:43.524Z,11.90
2023-03-05T11:11:22.368Z,8.70
2023-03-05T11:14:07.098Z,10.60
2023-03-05T11:16:54.347Z,9.60
2023-03-05T11:19:35.273Z,6.80
2023-03-05T11:22:21.336Z,8.00
2023-03-05T11:25:16.738Z,6.60
2023-03-05T11:27:57.481Z,4.40
2023-03-05T11:30:41.620Z,3.60
2023-03-05T11:33:24.267Z,5.00
2023-03-05T11:36:37.111Z,4.80
2023-03-05T11:39:23.145Z,4.60
2023-03-05T11:42:27.135Z,4.30
2023-03-05T11:45:06.609Z,4.20
2023-03-05T11:47:55.428Z,3.70
2023-03-05T11:50:36.628Z,3.20
2023-03-05T11:53:20.219Z,4.40
2023-03-05T11:56:23.018Z,4.40
2023-03-05T11:59:20.563Z,4.60
2023-03-05T12:01:59.862Z,4.70
2023-03-05T12:04:36.001Z,5.60
2023-03-05T12:07:22.646Z,7.00
2023-03-05T12:10:00.377Z,5.90
2023-03-05T12:13:00.039Z,7.30
2023-03-05T12:16:05.981Z,4.30
2023-03-05T12:18:58.138Z,6.20
2023-03-05T12:21:42.101Z,7.00
2023-03-05T12:24:39.860Z,6.20
2023-03-05T12:27:33.574Z,7.40
2023-03-05T12:30:37.197Z,5.40
2023-03-05T12:33:37.798Z,6.20
2023-03-05T12:36:37.905Z,5.80
2023-03-05T12:40:09.179Z,4.50
2023-03-05T12:42:39.735Z,5.00
2023-03-05T12:45:20.364Z,4.60
2023-03-05T12:47:56.040Z,3.30
2023-03-05T12:50:53.217Z,4.60
2023-03-05T12:53:30.465Z,4.60
2023-03-05T12:56:25.627Z,4.90
2023-03-05T12:59:05.473Z,5.00
2023-03-05T13:01:49.005Z,5.00
2023-03-05T13:04:33.642Z,4.50
2023-03-05T13:07:17.344Z,4.70
2023-03-05T13:10:02.885Z,4.30
2023-03-05T13:12:39.711Z,4.20
2023-03-05T13:15:20.508Z,4.40
2023-03-05T13:18:15.138Z,4.00
2023-03-05T13:23:34.929Z,3.20
2023-03-05T13:26:21.967Z,3.90
2023-03-05T13:29:13.426Z,4.30
2023-03-05T13:31:56.625Z,3.30
2023-03-05T13:34:47.150Z,4.50
2023-03-05T13:37:33.365Z,3.40
2023-03-05T13:40:36.404Z,2.70
2023-03-05T13:43:20.265Z,4.30
2023-03-05T13:46:00.533Z,3.50
2023-03-05T13:48:38.789Z,2.10
2023-03-05T13:51:10.063Z,3.30
2023-03-05T13:53:40.374Z,3.40
2023-03-05T13:56:25.777Z,2.70
2023-03-05T13:59:21.828Z,3.20
2023-03-05T14:02:00.844Z,4.10
2023-03-05T14:04:44.487Z,3.10
2023-03-05T14:07:42.007Z,3.90
2023-03-05T14:10:43.343Z,3.60
2023-03-05T14:13:28.291Z,3.70
2023-03-05T14:16:33.569Z,3.30
2023-03-05T14:19:32.229Z,3.20
2023-03-05T14:22:28.090Z,3.30
2023-03-05T14:25:05.699Z,3.70
2023-03-05T14:27:41.028Z,4.10
2023-03-05T14:30:24.362Z,2.70
2023-03-05T14:33:03.723Z,5.20
2023-03-05T14:35:41.281Z,4.50
2023-03-05T14:38:30.516Z,4.50
2023-03-05T14:41:43.558Z,5.80
2023-03-05T14:44:17.875Z,6.50
2023-03-05T14:46:58.273Z,6.90
2023-03-05T14:49:35.797Z,8.70
2023-03-05T14:52:16.181Z,6.50
2023-03-05T14:54:54.499Z,6.20
2023-03-05T14:57:37.756Z,9.20
2023-03-05T15:00:30.028Z,5.70
2023-03-05T15:03:08.127Z,5.30
2023-03-05T15:05:56.392Z,5.10
2023-03-05T15:08:33.013Z,4.30
2023-03-05T15:11:11.511Z,6.20
2023-03-05T15:13:42.023Z,5.80
2023-03-05T15:16:18.698Z,4.70
2023-03-05T15:19:00.705Z,5.30
2023-03-05T15:21:37.816Z,4.90
2023-03-05T15:24:15.330Z,4.00
2023-03-05T15:26:52.695Z,6.50
2023-03-05T15:29:30.058Z,6.70
2023-03-05T15:32:01.722Z,6.20
2023-03-05T15:34:35.040Z,7.40
2023-03-05T15:37:11.966Z,5.40
2023-03-05T15:39:48.417Z,10.90
2023-03-05T15:42:20.869Z,6.30
2023-03-05T15:44:58.799Z,8.00
2023-03-05T15:47:36.285Z,5.70
2023-03-05T15:50:14.636Z,6.80
2023-03-05T15:52:52.679Z,6.20
2023-03-05T15:55:23.294Z,3.80
2023-03-05T15:57:55.397Z,8.30
2023-03-05T16:00:33.577Z,6.10
2023-03-05T16:03:11.604Z,6.20
2023-03-05T16:05:44.001Z,6.80
2023-03-05T16:08:15.207Z,6.10
2023-03-05T16:10:53.483Z,7.50
2023-03-05T16:13:24.521Z,7.10
2023-03-05T16:15:55.437Z,6.60
2023-03-05T16:18:39.643Z,5.70
2023-03-05T16:21:15.522Z,6.40
2023-03-05T16:23:46.438Z,6.90
2023-03-05T16:26:19.377Z,6.90
2023-03-05T16:28:57.570Z,5.10
2023-03-05T16:31:43.586Z,7.50
2023-03-05T16:34:16.811Z,6.90
2023-03-05T16:36:55.421Z,8.70
2023-03-05T16:39:25.849Z,8.20
2023-03-05T16:42:05.606Z,7.20
2023-03-05T16:44:43.872Z,5.90
2023-03-05T16:47:16.171Z,6.90
2023-03-05T16:49:53.580Z,7.30
2023-03-05T16:52:32.325Z,6.90
2023-03-05T16:55:09.951Z,5.90
2023-03-05T16:57:47.618Z,8.70
2023-03-05T17:00:22.940Z,7.20
2023-03-05T17:03:00.491Z,7.00
2023-03-05T17:05:40.337Z,10.30
2023-03-05T17:08:16.963Z,6.80
2023-03-05T17:10:53.617Z,7.60
2023-03-05T17:13:30.882Z,7.00
2023-03-05T17:16:08.602Z,7.80
2023-03-05T17:18:46.100Z,20.80
2023-03-05T17:21:18.144Z,16.70
2023-03-05T17:23:57.159Z,14.90
2023-03-05T17:26:40.188Z,9.40
2023-03-05T17:29:16.867Z,9.40
2023-03-05T17:31:54.729Z,8.60
2023-03-05T17:34:36.794Z,9.90
2023-03-05T17:37:16.800Z,8.30
2023-03-05T17:39:54.275Z,9.50
2023-03-05T17:42:31.084Z,8.70
2023-03-05T17:45:10.343Z,8.30
2023-03-05T17:47:47.755Z,9.40
2023-03-05T17:50:25.436Z,7.40
2023-03-05T17:53:02.943Z,9.20
2023-03-05T17:55:40.295Z,8.30
2023-03-05T17:58:18.202Z,7.90
2023-03-05T18:00:55.153Z,9.50
2023-03-05T18:03:25.454Z,9.00
2023-03-05T18:05:55.907Z,8.30
2023-03-05T18:08:26.548Z,9.50
2023-03-05T18:11:04.887Z,8.10
2023-03-05T18:13:42.272Z,9.10
2023-03-05T18:16:19.850Z,10.40
2023-03-05T18:18:58.035Z,9.50
2023-03-05T18:21:29.610Z,9.90
2023-03-05T18:24:08.790Z,8.10
2023-03-05T18:26:39.381Z,8.40
2023-03-05T18:29:18.692Z,7.70
2023-03-05T18:31:50.671Z,7.80
2023-03-05T18:34:27.195Z,8.80
2023-03-05T18:36:57.712Z,8.20
2023-03-05T18:39:34.509Z,8.00
2023-03-05T18:42:16.740Z,7.70
2023-03-05T18:44:53.496Z,8.40
2023-03-05T18:47:29.465Z,10.30
2023-03-05T18:50:08.616Z,9.80
2023-03-05T18:52:48.296Z,8.70
2023-03-05T18:55:29.780Z,9.80
2023-03-05T18:58:08.520Z,8.70
2023-03-05T19:00:42.298Z,9.10
2023-03-05T19:03:21.875Z,9.50
2023-03-05T19:05:54.359Z,8.50
2023-03-05T19:08:29.710Z,7.60
2023-03-05T19:11:15.291Z,10.60
2023-03-05T19:13:57.377Z,7.30
2023-03-05T19:16:39.057Z,8.50
2023-03-05T19:19:24.913Z,8.10
2023-03-05T19:22:01.738Z,9.10
2023-03-05T19:24:40.154Z,6.00
2023-03-05T19:27:17.629Z,7.60
2023-03-05T19:29:54.755Z,9.10
2023-03-05T19:32:30.344Z,9.30
2023-03-05T19:35:08.226Z,10.40
2023-03-05T19:37:38.415Z,10.00
2023-03-05T19:40:16.329Z,8.50
2023-03-05T19:42:53.703Z,7.40
2023-03-05T19:45:32.650Z,8.10
2023-03-05T19:48:10.038Z,8.70
2023-03-05T19:50:42.570Z,8.00
2023-03-05T19:53:20.424Z,8.90
2023-03-05T19:55:57.582Z,8.70
2023-03-05T19:58:31.359Z,12.10
2023-03-05T20:01:26.418Z,9.80
2023-03-05T20:04:00.388Z,10.70
2023-03-05T20:06:33.679Z,13.00
2023-03-05T20:09:12.610Z,10.50
2023-03-05T20:11:51.789Z,10.20
2023-03-05T20:14:29.417Z,10.70
2023-03-05T20:17:06.705Z,10.10
2023-03-05T20:19:37.652Z,9.40
2023-03-05T20:22:17.056Z,12.30
2023-03-05T20:24:54.503Z,12.20
2023-03-05T20:27:31.996Z,11.10
2023-03-05T20:30:15.618Z,11.10
2023-03-05T20:32:53.658Z,11.00
2023-03-05T20:35:31.528Z,11.60
2023-03-05T20:38:25.569Z,12.10
2023-03-05T20:41:06.746Z,12.10
2023-03-05T20:43:47.492Z,12.80
2023-03-05T20:46:33.168Z,13.20
2023-03-05T20:49:11.354Z,12.40
2023-03-05T20:51:52.058Z,12.70
2023-03-05T20:54:28.722Z,9.20
2023-03-05T20:57:07.086Z,12.00
2023-03-05T20:59:37.926Z,9.40
2023-03-05T21:02:16.254Z,13.00
2023-03-05T21:04:53.893Z,10.20
2023-03-05T21:07:31.726Z,11.10
2023-03-05T21:10:04.466Z,12.80
2023-03-05T21:12:34.881Z,13.30
2023-03-05T21:15:14.040Z,12.20
2023-03-05T21:17:45.217Z,10.90
2023-03-05T21:20:29.062Z,12.30
2023-03-05T21:23:07.079Z,9.60
2023-03-05T21:25:37.315Z,12.00
2023-03-05T21:28:19.000Z,9.30
2023-03-05T21:31:08.302Z,9.60
2023-03-05T21:33:38.990Z,10.50
2023-03-05T21:36:19.254Z,9.20
2023-03-05T21:38:52.514Z,11.50
2023-03-05T21:41:31.455Z,11.10
2023-03-05T21:44:04.465Z,12.10
2023-03-05T21:46:35.611Z,10.50
2023-03-05T21:49:13.217Z,9.70
2023-03-05T21:52:03.640Z,10.90
2023-03-05T21:54:33.837Z,11.10
2023-03-05T21:57:13.888Z,7.90
2023-03-05T21:59:51.044Z,9.40
2023-03-05T22:02:28.060Z,7.40
2023-03-05T22:05:06.586Z,9.50
2023-03-05T22:07:36.834Z,9.80
2023-03-05T22:10:14.991Z,8.70
2023-03-05T22:13:08.736Z,9.00
2023-03-05T22:15:55.102Z,10.20
2023-03-05T22:18:35.326Z,6.70
2023-03-05T22:21:28.314Z,9.60
2023-03-05T22:24:05.068Z,10.10
2023-03-05T22:26:39.638Z,9.70
2023-03-05T22:29:17.996Z,11.10
2023-03-05T22:31:57.591Z,11.80
2023-03-05T22:34:33.093Z,10.70
2023-03-05T22:37:03.399Z,11.30
2023-03-05T22:39:33.746Z,12.80
2023-03-05T22:42:13.567Z,10.90
2023-03-05T22:44:47.438Z,11.70
2023-03-05T22:47:25.828Z,12.60
2023-03-05T22:50:02.681Z,11.30
2023-03-05T22:52:49.001Z,11.30
2023-03-05T22:55:22.951Z,10.80
2023-03-05T22:57:59.877Z,13.70
2023-03-05T23:00:35.313Z,12.80
2023-03-05T23:05:43.842Z,13.00
2023-03-05T23:08:21.726Z,11.80
2023-03-05T23:10:58.154Z,11.50
2023-03-05T23:13:28.414Z,11.30
2023-03-05T23:16:05.385Z,8.40
2023-03-05T23:18:35.876Z,8.40
2023-03-05T23:21:13.670Z,12.80
2023-03-05T23:23:47.752Z,12.00
2023-03-05T23:26:25.250Z,14.00
2023-03-05T23:29:02.548Z,14.10
2023-03-05T23:31:34.522Z,13.00
2023-03-05T23:34:08.897Z,12.30
2023-03-05T23:36:39.993Z,13.10
2023-03-05T23:39:17.844Z,13.20
2023-03-05T23:41:54.514Z,11.70
2023-03-05T23:44:28.066Z,14.00
2023-03-05T23:47:05.082Z,11.10
2023-03-05T23:49:44.274Z,13.30
2023-03-05T23:52:14.365Z,14.80
2023-03-05T23:54:48.724Z,13.70
2023-03-05T23:57:25.947Z,13.60
